sensor_id;sensor_type;location;lat;lon;timestamp;P1;durP1;ratioP1;P2;durP2;ratioP2
30723;SDS011;17473;52.286;20.930;2023-10-13T00:01:08;14.13;;;7.93;;
30723;SDS011;17473;52.286;20.930;2023-10-13T00:03:38;15.47;;;7.83;;
30723;SDS011;17473;52.286;20.930;2023-10-13T00:06:06;13.93;;;7.50;;
30723;SDS011;17473;52.286;20.930;2023-10-13T00:08:35;15.75;;;8.20;;
30723;SDS011;17473;52.286;20.930;2023-10-13T00:11:12;15.93;;;8.27;;
30723;SDS011;17473;52.286;20.930;2023-10-13T00:13:40;16.15;;;8.45;;
30723;SDS011;17473;52.286;20.930;2023-10-13T00:16:17;18.67;;;7.80;;
30723;SDS011;17473;52.286;20.930;2023-10-13T00:18:49;18.00;;;8.30;;
30723;SDS011;17473;52.286;20.930;2023-10-13T00:21:21;18.35;;;8.30;;
30723;SDS011;17473;52.286;20.930;2023-10-13T00:24:02;14.93;;;8.13;;
30723;SDS011;17473;52.286;20.930;2023-10-13T00:26:33;21.83;;;8.27;;
30723;SDS011;17473;52.286;20.930;2023-10-13T00:29:03;19.67;;;8.37;;
30723;SDS011;17473;52.286;20.930;2023-10-13T00:31:37;16.70;;;8.23;;
30723;SDS011;17473;52.286;20.930;2023-10-13T00:34:10;21.73;;;9.60;;
30723;SDS011;17473;52.286;20.930;2023-10-13T00:36:52;17.60;;;8.93;;
30723;SDS011;17473;52.286;20.930;2023-10-13T00:39:38;16.37;;;8.70;;
30723;SDS011;17473;52.286;20.930;2023-10-13T00:42:12;17.87;;;9.17;;
30723;SDS011;17473;52.286;20.930;2023-10-13T00:44:50;22.33;;;9.33;;
30723;SDS011;17473;52.286;20.930;2023-10-13T00:47:21;21.43;;;9.67;;
30723;SDS011;17473;52.286;20.930;2023-10-13T00:50:15;19.50;;;9.23;;
30723;SDS011;17473;52.286;20.930;2023-10-13T00:52:44;22.57;;;9.63;;
30723;SDS011;17473;52.286;20.930;2023-10-13T00:55:17;16.80;;;9.47;;
30723;SDS011;17473;52.286;20.930;2023-10-13T00:57:51;18.17;;;9.13;;
30723;SDS011;17473;52.286;20.930;2023-10-13T01:00:20;22.17;;;9.90;;
30723;SDS011;17473;52.286;20.930;2023-10-13T01:02:54;18.77;;;9.50;;
30723;SDS011;17473;52.286;20.930;2023-10-13T01:05:23;18.80;;;10.07;;
30723;SDS011;17473;52.286;20.930;2023-10-13T01:07:51;21.70;;;9.80;;
30723;SDS011;17473;52.286;20.930;2023-10-13T01:10:21;23.42;;;10.85;;
30723;SDS011;17473;52.286;20.930;2023-10-13T01:12:59;19.60;;;10.13;;
30723;SDS011;17473;52.286;20.930;2023-10-13T01:15:29;15.93;;;8.93;;
30723;SDS011;17473;52.286;20.930;2023-10-13T01:18:09;18.50;;;10.17;;
30723;SDS011;17473;52.286;20.930;2023-10-13T01:20:40;16.83;;;9.77;;
30723;SDS011;17473;52.286;20.930;2023-10-13T01:23:12;15.57;;;9.70;;
30723;SDS011;17473;52.286;20.930;2023-10-13T01:25:46;17.83;;;9.83;;
30723;SDS011;17473;52.286;20.930;2023-10-13T01:28:14;15.97;;;8.70;;
30723;SDS011;17473;52.286;20.930;2023-10-13T01:30:45;20.80;;;9.55;;
30723;SDS011;17473;52.286;20.930;2023-10-13T01:33:18;20.50;;;9.87;;
30723;SDS011;17473;52.286;20.930;2023-10-13T01:35:55;16.33;;;9.20;;
30723;SDS011;17473;52.286;20.930;2023-10-13T01:38:25;15.90;;;9.13;;
30723;SDS011;17473;52.286;20.930;2023-10-13T01:40:59;16.87;;;8.47;;
30723;SDS011;17473;52.286;20.930;2023-10-13T01:43:27;14.80;;;8.53;;
30723;SDS011;17473;52.286;20.930;2023-10-13T01:45:54;21.10;;;9.47;;
30723;SDS011;17473;52.286;20.930;2023-10-13T01:48:21;18.40;;;9.30;;
30723;SDS011;17473;52.286;20.930;2023-10-13T01:50:49;16.80;;;8.90;;
30723;SDS011;17473;52.286;20.930;2023-10-13T01:53:22;16.00;;;9.63;;
30723;SDS011;17473;52.286;20.930;2023-10-13T01:55:49;15.40;;;9.10;;
30723;SDS011;17473;52.286;20.930;2023-10-13T01:58:16;20.37;;;9.93;;
30723;SDS011;17473;52.286;20.930;2023-10-13T02:00:49;20.00;;;9.90;;
30723;SDS011;17473;52.286;20.930;2023-10-13T02:03:16;17.50;;;9.73;;
30723;SDS011;17473;52.286;20.930;2023-10-13T02:05:45;15.83;;;8.90;;
30723;SDS011;17473;52.286;20.930;2023-10-13T02:08:18;19.27;;;9.30;;
30723;SDS011;17473;52.286;20.930;2023-10-13T02:10:52;17.50;;;8.50;;
30723;SDS011;17473;52.286;20.930;2023-10-13T02:13:22;17.40;;;8.97;;
30723;SDS011;17473;52.286;20.930;2023-10-13T02:15:54;16.15;;;8.93;;
30723;SDS011;17473;52.286;20.930;2023-10-13T02:18:24;20.00;;;9.30;;
30723;SDS011;17473;52.286;20.930;2023-10-13T02:21:01;20.00;;;8.63;;
30723;SDS011;17473;52.286;20.930;2023-10-13T02:23:39;15.03;;;8.60;;
30723;SDS011;17473;52.286;20.930;2023-10-13T02:26:12;14.07;;;8.13;;
30723;SDS011;17473;52.286;20.930;2023-10-13T02:28:42;12.57;;;7.97;;
30723;SDS011;17473;52.286;20.930;2023-10-13T02:31:10;13.27;;;8.30;;
30723;SDS011;17473;52.286;20.930;2023-10-13T02:33:38;13.27;;;7.73;;
30723;SDS011;17473;52.286;20.930;2023-10-13T02:36:11;19.30;;;9.10;;
30723;SDS011;17473;52.286;20.930;2023-10-13T02:38:38;19.17;;;8.97;;
30723;SDS011;17473;52.286;20.930;2023-10-13T02:41:12;17.27;;;8.30;;
30723;SDS011;17473;52.286;20.930;2023-10-13T02:43:54;13.53;;;8.20;;
30723;SDS011;17473;52.286;20.930;2023-10-13T02:46:23;14.27;;;7.93;;
30723;SDS011;17473;52.286;20.930;2023-10-13T02:48:56;17.37;;;9.10;;
30723;SDS011;17473;52.286;20.930;2023-10-13T02:51:29;16.67;;;7.73;;
30723;SDS011;17473;52.286;20.930;2023-10-13T02:54:03;14.10;;;8.50;;
30723;SDS011;17473;52.286;20.930;2023-10-13T02:56:45;18.13;;;8.73;;
30723;SDS011;17473;52.286;20.930;2023-10-13T02:59:23;20.10;;;8.90;;
30723;SDS011;17473;52.286;20.930;2023-10-13T03:02:26;16.63;;;9.10;;
30723;SDS011;17473;52.286;20.930;2023-10-13T03:04:56;14.73;;;8.33;;
30723;SDS011;17473;52.286;20.930;2023-10-13T03:07:35;18.00;;;7.87;;
30723;SDS011;17473;52.286;20.930;2023-10-13T03:10:03;16.50;;;9.30;;
30723;SDS011;17473;52.286;20.930;2023-10-13T03:12:38;17.67;;;9.27;;
30723;SDS011;17473;52.286;20.930;2023-10-13T03:15:06;21.70;;;8.90;;
30723;SDS011;17473;52.286;20.930;2023-10-13T03:17:48;24.80;;;9.93;;
30723;SDS011;17473;52.286;20.930;2023-10-13T03:20:16;17.20;;;8.57;;
30723;SDS011;17473;52.286;20.930;2023-10-13T03:22:57;25.13;;;9.13;;
30723;SDS011;17473;52.286;20.930;2023-10-13T03:25:25;21.03;;;8.83;;
30723;SDS011;17473;52.286;20.930;2023-10-13T03:27:56;16.03;;;8.13;;
30723;SDS011;17473;52.286;20.930;2023-10-13T03:30:27;15.63;;;8.63;;
30723;SDS011;17473;52.286;20.930;2023-10-13T03:33:09;17.43;;;8.43;;
30723;SDS011;17473;52.286;20.930;2023-10-13T03:35:38;18.40;;;8.73;;
30723;SDS011;17473;52.286;20.930;2023-10-13T03:38:09;14.53;;;7.83;;
30723;SDS011;17473;52.286;20.930;2023-10-13T03:40:47;23.00;;;9.97;;
30723;SDS011;17473;52.286;20.930;2023-10-13T03:43:34;23.97;;;8.97;;
30723;SDS011;17473;52.286;20.930;2023-10-13T03:46:12;17.87;;;8.07;;
30723;SDS011;17473;52.286;20.930;2023-10-13T03:48:41;14.53;;;7.43;;
30723;SDS011;17473;52.286;20.930;2023-10-13T03:51:19;15.57;;;8.63;;
30723;SDS011;17473;52.286;20.930;2023-10-13T03:53:46;14.80;;;8.53;;
30723;SDS011;17473;52.286;20.930;2023-10-13T03:56:21;14.47;;;8.43;;
30723;SDS011;17473;52.286;20.930;2023-10-13T03:58:58;12.97;;;7.50;;
30723;SDS011;17473;52.286;20.930;2023-10-13T04:01:31;16.40;;;8.17;;
30723;SDS011;17473;52.286;20.930;2023-10-13T04:04:16;17.70;;;8.83;;
30723;SDS011;17473;52.286;20.930;2023-10-13T04:07:16;15.23;;;8.17;;
30723;SDS011;17473;52.286;20.930;2023-10-13T04:09:52;17.13;;;8.83;;
30723;SDS011;17473;52.286;20.930;2023-10-13T04:12:39;19.47;;;8.37;;
30723;SDS011;17473;52.286;20.930;2023-10-13T04:15:43;15.47;;;8.50;;
30723;SDS011;17473;52.286;20.930;2023-10-13T04:18:30;16.13;;;9.37;;
30723;SDS011;17473;52.286;20.930;2023-10-13T04:21:15;22.53;;;8.77;;
30723;SDS011;17473;52.286;20.930;2023-10-13T04:24:06;16.97;;;8.77;;
30723;SDS011;17473;52.286;20.930;2023-10-13T04:26:44;15.33;;;7.87;;
30723;SDS011;17473;52.286;20.930;2023-10-13T04:29:30;18.43;;;8.67;;
30723;SDS011;17473;52.286;20.930;2023-10-13T04:32:16;19.13;;;8.50;;
30723;SDS011;17473;52.286;20.930;2023-10-13T04:34:59;17.00;;;9.00;;
30723;SDS011;17473;52.286;20.930;2023-10-13T04:37:44;23.23;;;9.20;;
30723;SDS011;17473;52.286;20.930;2023-10-13T04:40:18;15.07;;;8.10;;
30723;SDS011;17473;52.286;20.930;2023-10-13T04:42:51;16.60;;;8.57;;
30723;SDS011;17473;52.286;20.930;2023-10-13T04:45:30;16.83;;;8.87;;
30723;SDS011;17473;52.286;20.930;2023-10-13T04:47:58;37.37;;;8.53;;
30723;SDS011;17473;52.286;20.930;2023-10-13T04:50:46;17.83;;;7.87;;
30723;SDS011;17473;52.286;20.930;2023-10-13T04:53:18;14.87;;;8.20;;
30723;SDS011;17473;52.286;20.930;2023-10-13T04:56:00;16.03;;;8.20;;
30723;SDS011;17473;52.286;20.930;2023-10-13T04:58:30;20.30;;;8.47;;
30723;SDS011;17473;52.286;20.930;2023-10-13T05:01:16;14.13;;;7.63;;
30723;SDS011;17473;52.286;20.930;2023-10-13T05:03:52;17.00;;;7.67;;
30723;SDS011;17473;52.286;20.930;2023-10-13T05:06:48;18.73;;;8.87;;
30723;SDS011;17473;52.286;20.930;2023-10-13T05:09:34;17.60;;;7.50;;
30723;SDS011;17473;52.286;20.930;2023-10-13T05:12:20;18.47;;;7.67;;
30723;SDS011;17473;52.286;20.930;2023-10-13T05:15:06;18.80;;;8.23;;
30723;SDS011;17473;52.286;20.930;2023-10-13T05:17:51;19.83;;;8.82;;
30723;SDS011;17473;52.286;20.930;2023-10-13T05:20:37;15.67;;;8.07;;
30723;SDS011;17473;52.286;20.930;2023-10-13T05:23:23;18.77;;;8.52;;
30723;SDS011;17473;52.286;20.930;2023-10-13T05:26:09;15.45;;;7.63;;
30723;SDS011;17473;52.286;20.930;2023-10-13T05:28:54;14.18;;;8.23;;
30723;SDS011;17473;52.286;20.930;2023-10-13T05:31:53;17.05;;;8.20;;
30723;SDS011;17473;52.286;20.930;2023-10-13T05:34:39;22.02;;;9.45;;
30723;SDS011;17473;52.286;20.930;2023-10-13T05:37:25;18.23;;;8.25;;
30723;SDS011;17473;52.286;20.930;2023-10-13T05:40:11;18.45;;;9.15;;
30723;SDS011;17473;52.286;20.930;2023-10-13T05:42:57;21.00;;;8.45;;
30723;SDS011;17473;52.286;20.930;2023-10-13T05:45:43;17.77;;;8.85;;
30723;SDS011;17473;52.286;20.930;2023-10-13T05:48:49;26.00;;;8.75;;
30723;SDS011;17473;52.286;20.930;2023-10-13T05:54:02;51.15;;;11.63;;
30723;SDS011;17473;52.286;20.930;2023-10-13T05:59:34;32.85;;;10.43;;
30723;SDS011;17473;52.286;20.930;2023-10-13T06:02:23;41.88;;;14.98;;
30723;SDS011;17473;52.286;20.930;2023-10-13T06:05:10;27.55;;;10.02;;
30723;SDS011;17473;52.286;20.930;2023-10-13T06:07:57;28.25;;;10.43;;
30723;SDS011;17473;52.286;20.930;2023-10-13T06:10:44;28.42;;;8.70;;
30723;SDS011;17473;52.286;20.930;2023-10-13T06:13:33;23.77;;;7.55;;
30723;SDS011;17473;52.286;20.930;2023-10-13T06:16:19;20.67;;;8.68;;
30723;SDS011;17473;52.286;20.930;2023-10-13T06:19:05;22.02;;;7.75;;
30723;SDS011;17473;52.286;20.930;2023-10-13T06:21:51;32.00;;;9.05;;
30723;SDS011;17473;52.286;20.930;2023-10-13T06:24:36;25.33;;;8.85;;
30723;SDS011;17473;52.286;20.930;2023-10-13T06:27:22;32.08;;;8.93;;
30723;SDS011;17473;52.286;20.930;2023-10-13T06:30:08;25.70;;;9.05;;
30723;SDS011;17473;52.286;20.930;2023-10-13T06:32:36;22.13;;;8.77;;
30723;SDS011;17473;52.286;20.930;2023-10-13T06:35:06;25.65;;;8.13;;
30723;SDS011;17473;52.286;20.930;2023-10-13T06:37:34;23.95;;;8.60;;
30723;SDS011;17473;52.286;20.930;2023-10-13T06:40:09;19.17;;;8.38;;
30723;SDS011;17473;52.286;20.930;2023-10-13T06:42:57;29.65;;;8.88;;
30723;SDS011;17473;52.286;20.930;2023-10-13T06:45:42;29.27;;;8.95;;
30723;SDS011;17473;52.286;20.930;2023-10-13T06:48:30;15.68;;;7.43;;
30723;SDS011;17473;52.286;20.930;2023-10-13T06:51:01;24.95;;;7.25;;
30723;SDS011;17473;52.286;20.930;2023-10-13T06:53:45;14.88;;;6.38;;
30723;SDS011;17473;52.286;20.930;2023-10-13T06:56:15;17.70;;;5.75;;
30723;SDS011;17473;52.286;20.930;2023-10-13T06:58:49;20.60;;;6.80;;
30723;SDS011;17473;52.286;20.930;2023-10-13T07:01:16;18.27;;;5.75;;
30723;SDS011;17473;52.286;20.930;2023-10-13T07:03:48;19.40;;;5.47;;
30723;SDS011;17473;52.286;20.930;2023-10-13T07:06:22;19.42;;;6.38;;
30723;SDS011;17473;52.286;20.930;2023-10-13T07:08:51;13.02;;;5.53;;
30723;SDS011;17473;52.286;20.930;2023-10-13T07:11:19;15.05;;;5.82;;
30723;SDS011;17473;52.286;20.930;2023-10-13T07:14:11;18.35;;;7.13;;
30723;SDS011;17473;52.286;20.930;2023-10-13T07:16:43;17.75;;;6.32;;
30723;SDS011;17473;52.286;20.930;2023-10-13T07:19:27;16.77;;;6.22;;
30723;SDS011;17473;52.286;20.930;2023-10-13T07:21:55;16.25;;;5.93;;
30723;SDS011;17473;52.286;20.930;2023-10-13T07:24:43;17.45;;;5.65;;
30723;SDS011;17473;52.286;20.930;2023-10-13T07:27:15;11.95;;;5.30;;
30723;SDS011;17473;52.286;20.930;2023-10-13T07:29:51;15.02;;;5.95;;
30723;SDS011;17473;52.286;20.930;2023-10-13T07:32:43;14.55;;;5.25;;
30723;SDS011;17473;52.286;20.930;2023-10-13T07:35:15;15.20;;;5.68;;
30723;SDS011;17473;52.286;20.930;2023-10-13T07:37:51;9.02;;;4.28;;
30723;SDS011;17473;52.286;20.930;2023-10-13T07:40:19;14.07;;;5.03;;
30723;SDS011;17473;52.286;20.930;2023-10-13T07:42:54;12.40;;;4.40;;
30723;SDS011;17473;52.286;20.930;2023-10-13T07:45:38;10.85;;;4.38;;
30723;SDS011;17473;52.286;20.930;2023-10-13T07:48:08;20.40;;;5.00;;
30723;SDS011;17473;52.286;20.930;2023-10-13T07:51:03;13.73;;;5.20;;
30723;SDS011;17473;52.286;20.930;2023-10-13T07:53:41;11.57;;;4.43;;
30723;SDS011;17473;52.286;20.930;2023-10-13T07:56:15;10.60;;;4.30;;
30723;SDS011;17473;52.286;20.930;2023-10-13T07:58:47;14.43;;;4.80;;
30723;SDS011;17473;52.286;20.930;2023-10-13T08:01:30;14.50;;;4.72;;
30723;SDS011;17473;52.286;20.930;2023-10-13T08:03:59;11.07;;;5.03;;
30723;SDS011;17473;52.286;20.930;2023-10-13T08:06:38;12.25;;;4.03;;
30723;SDS011;17473;52.286;20.930;2023-10-13T08:09:10;16.92;;;4.80;;
30723;SDS011;17473;52.286;20.930;2023-10-13T08:11:56;11.75;;;4.50;;
30723;SDS011;17473;52.286;20.930;2023-10-13T08:14:23;10.75;;;4.28;;
30723;SDS011;17473;52.286;20.930;2023-10-13T08:17:08;15.55;;;4.50;;
30723;SDS011;17473;52.286;20.930;2023-10-13T08:19:37;12.50;;;4.22;;
30723;SDS011;17473;52.286;20.930;2023-10-13T08:22:14;15.77;;;4.68;;
30723;SDS011;17473;52.286;20.930;2023-10-13T08:24:45;10.20;;;4.60;;
30723;SDS011;17473;52.286;20.930;2023-10-13T08:27:21;13.65;;;4.88;;
30723;SDS011;17473;52.286;20.930;2023-10-13T08:30:02;16.90;;;3.95;;
30723;SDS011;17473;52.286;20.930;2023-10-13T08:32:49;9.77;;;3.90;;
30723;SDS011;17473;52.286;20.930;2023-10-13T08:35:26;17.45;;;4.82;;
30723;SDS011;17473;52.286;20.930;2023-10-13T08:38:01;9.82;;;3.42;;
30723;SDS011;17473;52.286;20.930;2023-10-13T08:40:57;15.93;;;3.70;;
30723;SDS011;17473;52.286;20.930;2023-10-13T08:43:45;12.38;;;3.30;;
30723;SDS011;17473;52.286;20.930;2023-10-13T08:46:18;9.15;;;3.88;;
30723;SDS011;17473;52.286;20.930;2023-10-13T08:48:58;10.90;;;3.63;;
30723;SDS011;17473;52.286;20.930;2023-10-13T08:51:40;9.75;;;4.15;;
30723;SDS011;17473;52.286;20.930;2023-10-13T08:54:16;9.63;;;4.00;;
30723;SDS011;17473;52.286;20.930;2023-10-13T08:57:01;12.15;;;4.15;;
30723;SDS011;17473;52.286;20.930;2023-10-13T08:59:46;18.05;;;5.03;;
30723;SDS011;17473;52.286;20.930;2023-10-13T09:02:20;8.60;;;4.65;;
30723;SDS011;17473;52.286;20.930;2023-10-13T09:05:10;15.52;;;5.93;;
30723;SDS011;17473;52.286;20.930;2023-10-13T09:07:57;20.75;;;5.78;;
30723;SDS011;17473;52.286;20.930;2023-10-13T09:10:36;15.18;;;6.68;;
30723;SDS011;17473;52.286;20.930;2023-10-13T09:13:35;15.70;;;6.97;;
30723;SDS011;17473;52.286;20.930;2023-10-13T09:16:11;17.25;;;7.65;;
30723;SDS011;17473;52.286;20.930;2023-10-13T09:19:03;17.10;;;7.53;;
30723;SDS011;17473;52.286;20.930;2023-10-13T09:21:39;23.65;;;8.25;;
30723;SDS011;17473;52.286;20.930;2023-10-13T09:24:10;20.05;;;8.93;;
30723;SDS011;17473;52.286;20.930;2023-10-13T09:26:49;15.93;;;8.32;;
30723;SDS011;17473;52.286;20.930;2023-10-13T09:29:20;19.88;;;8.68;;
30723;SDS011;17473;52.286;20.930;2023-10-13T09:31:58;20.50;;;8.30;;
30723;SDS011;17473;52.286;20.930;2023-10-13T09:34:31;22.42;;;7.85;;
30723;SDS011;17473;52.286;20.930;2023-10-13T09:37:01;20.13;;;8.50;;
30723;SDS011;17473;52.286;20.930;2023-10-13T09:39:35;21.85;;;8.52;;
30723;SDS011;17473;52.286;20.930;2023-10-13T09:42:19;22.83;;;8.77;;
30723;SDS011;17473;52.286;20.930;2023-10-13T09:44:50;17.77;;;8.48;;
30723;SDS011;17473;52.286;20.930;2023-10-13T09:47:22;18.95;;;9.20;;
30723;SDS011;17473;52.286;20.930;2023-10-13T09:49:59;15.82;;;8.27;;
30723;SDS011;17473;52.286;20.930;2023-10-13T09:52:32;18.40;;;9.43;;
30723;SDS011;17473;52.286;20.930;2023-10-13T09:57:45;19.48;;;9.10;;
30723;SDS011;17473;52.286;20.930;2023-10-13T10:00:35;21.00;;;8.75;;
30723;SDS011;17473;52.286;20.930;2023-10-13T10:03:15;19.80;;;8.70;;
30723;SDS011;17473;52.286;20.930;2023-10-13T10:06:01;17.38;;;8.30;;
30723;SDS011;17473;52.286;20.930;2023-10-13T10:08:33;20.27;;;8.55;;
30723;SDS011;17473;52.286;20.930;2023-10-13T10:11:13;19.17;;;8.68;;
30723;SDS011;17473;52.286;20.930;2023-10-13T10:14:08;15.40;;;7.43;;
30723;SDS011;17473;52.286;20.930;2023-10-13T10:19:30;19.67;;;7.93;;
30723;SDS011;17473;52.286;20.930;2023-10-13T10:22:02;19.10;;;7.97;;
30723;SDS011;17473;52.286;20.930;2023-10-13T10:24:43;21.02;;;8.32;;
30723;SDS011;17473;52.286;20.930;2023-10-13T10:27:12;17.52;;;7.20;;
30723;SDS011;17473;52.286;20.930;2023-10-13T10:29:53;15.68;;;7.43;;
30723;SDS011;17473;52.286;20.930;2023-10-13T10:32:20;18.02;;;7.45;;
30723;SDS011;17473;52.286;20.930;2023-10-13T10:34:47;22.20;;;7.53;;
30723;SDS011;17473;52.286;20.930;2023-10-13T10:37:15;24.00;;;8.88;;
30723;SDS011;17473;52.286;20.930;2023-10-13T10:39:44;19.00;;;7.00;;
30723;SDS011;17473;52.286;20.930;2023-10-13T10:42:12;22.75;;;7.63;;
30723;SDS011;17473;52.286;20.930;2023-10-13T10:44:41;15.40;;;7.82;;
30723;SDS011;17473;52.286;20.930;2023-10-13T10:47:14;20.55;;;6.88;;
30723;SDS011;17473;52.286;20.930;2023-10-13T10:49:58;17.15;;;7.43;;
30723;SDS011;17473;52.286;20.930;2023-10-13T10:52:32;18.45;;;6.97;;
30723;SDS011;17473;52.286;20.930;2023-10-13T10:55:06;14.50;;;6.90;;
30723;SDS011;17473;52.286;20.930;2023-10-13T10:57:40;19.73;;;7.60;;
30723;SDS011;17473;52.286;20.930;2023-10-13T11:00:19;21.52;;;7.57;;
30723;SDS011;17473;52.286;20.930;2023-10-13T11:02:56;14.75;;;7.38;;
30723;SDS011;17473;52.286;20.930;2023-10-13T11:05:24;20.38;;;6.75;;
30723;SDS011;17473;52.286;20.930;2023-10-13T11:07:59;14.30;;;7.25;;
30723;SDS011;17473;52.286;20.930;2023-10-13T11:10:27;15.43;;;6.78;;
30723;SDS011;17473;52.286;20.930;2023-10-13T11:12:56;15.95;;;7.25;;
30723;SDS011;17473;52.286;20.930;2023-10-13T11:15:41;18.48;;;7.82;;
30723;SDS011;17473;52.286;20.930;2023-10-13T11:18:11;16.85;;;6.45;;
30723;SDS011;17473;52.286;20.930;2023-10-13T11:20:48;13.27;;;7.22;;
30723;SDS011;17473;52.286;20.930;2023-10-13T11:23:21;16.85;;;6.63;;
30723;SDS011;17473;52.286;20.930;2023-10-13T11:25:58;15.18;;;6.90;;
30723;SDS011;17473;52.286;20.930;2023-10-13T11:28:26;17.92;;;8.00;;
30723;SDS011;17473;52.286;20.930;2023-10-13T11:30:54;14.07;;;6.70;;
30723;SDS011;17473;52.286;20.930;2023-10-13T11:33:26;17.58;;;7.00;;
30723;SDS011;17473;52.286;20.930;2023-10-13T11:35:55;18.60;;;6.88;;
30723;SDS011;17473;52.286;20.930;2023-10-13T11:38:30;16.08;;;6.53;;
30723;SDS011;17473;52.286;20.930;2023-10-13T11:41:16;17.77;;;6.57;;
30723;SDS011;17473;52.286;20.930;2023-10-13T11:43:48;22.83;;;7.35;;
30723;SDS011;17473;52.286;20.930;2023-10-13T11:46:21;17.58;;;6.72;;
30723;SDS011;17473;52.286;20.930;2023-10-13T11:51:40;20.30;;;7.55;;
30723;SDS011;17473;52.286;20.930;2023-10-13T11:54:14;18.17;;;6.97;;
30723;SDS011;17473;52.286;20.930;2023-10-13T11:56:45;14.82;;;7.25;;
30723;SDS011;17473;52.286;20.930;2023-10-13T11:59:12;16.83;;;7.47;;
30723;SDS011;17473;52.286;20.930;2023-10-13T12:01:49;15.98;;;7.10;;
30723;SDS011;17473;52.286;20.930;2023-10-13T12:04:37;17.60;;;7.00;;
30723;SDS011;17473;52.286;20.930;2023-10-13T12:07:25;17.08;;;6.45;;
30723;SDS011;17473;52.286;20.930;2023-10-13T12:10:12;13.43;;;6.32;;
30723;SDS011;17473;52.286;20.930;2023-10-13T12:12:43;11.70;;;6.38;;
30723;SDS011;17473;52.286;20.930;2023-10-13T12:15:13;17.20;;;6.75;;
30723;SDS011;17473;52.286;20.930;2023-10-13T12:17:52;18.73;;;7.03;;
30723;SDS011;17473;52.286;20.930;2023-10-13T12:20:20;18.13;;;6.85;;
30723;SDS011;17473;52.286;20.930;2023-10-13T12:23:00;19.50;;;6.38;;
30723;SDS011;17473;52.286;20.930;2023-10-13T12:25:39;18.30;;;7.15;;
30723;SDS011;17473;52.286;20.930;2023-10-13T12:28:24;26.77;;;6.65;;
30723;SDS011;17473;52.286;20.930;2023-10-13T12:30:54;18.80;;;6.80;;
30723;SDS011;17473;52.286;20.930;2023-10-13T12:33:25;15.13;;;6.50;;
30723;SDS011;17473;52.286;20.930;2023-10-13T12:35:57;24.25;;;7.15;;
30723;SDS011;17473;52.286;20.930;2023-10-13T12:38:40;10.23;;;6.15;;
30723;SDS011;17473;52.286;20.930;2023-10-13T12:41:14;17.58;;;6.90;;
30723;SDS011;17473;52.286;20.930;2023-10-13T12:44:02;22.67;;;7.10;;
30723;SDS011;17473;52.286;20.930;2023-10-13T12:46:50;14.77;;;7.20;;
30723;SDS011;17473;52.286;20.930;2023-10-13T12:49:37;17.00;;;6.88;;
30723;SDS011;17473;52.286;20.930;2023-10-13T12:52:14;15.27;;;6.45;;
30723;SDS011;17473;52.286;20.930;2023-10-13T12:55:02;14.65;;;6.55;;
30723;SDS011;17473;52.286;20.930;2023-10-13T12:57:33;21.15;;;7.47;;
30723;SDS011;17473;52.286;20.930;2023-10-13T13:00:01;21.95;;;7.88;;
30723;SDS011;17473;52.286;20.930;2023-10-13T13:02:43;17.80;;;7.32;;
30723;SDS011;17473;52.286;20.930;2023-10-13T13:05:10;17.98;;;7.30;;
30723;SDS011;17473;52.286;20.930;2023-10-13T13:07:40;15.85;;;7.40;;
30723;SDS011;17473;52.286;20.930;2023-10-13T13:10:14;16.90;;;7.40;;
30723;SDS011;17473;52.286;20.930;2023-10-13T13:12:41;20.33;;;6.97;;
30723;SDS011;17473;52.286;20.930;2023-10-13T13:15:09;15.73;;;7.53;;
30723;SDS011;17473;52.286;20.930;2023-10-13T13:17:38;17.70;;;7.25;;
30723;SDS011;17473;52.286;20.930;2023-10-13T13:20:06;13.00;;;6.50;;
30723;SDS011;17473;52.286;20.930;2023-10-13T13:22:38;22.38;;;7.50;;
30723;SDS011;17473;52.286;20.930;2023-10-13T13:25:05;16.27;;;6.63;;
30723;SDS011;17473;52.286;20.930;2023-10-13T13:27:35;18.75;;;8.30;;
30723;SDS011;17473;52.286;20.930;2023-10-13T13:30:03;21.30;;;7.80;;
30723;SDS011;17473;52.286;20.930;2023-10-13T13:32:40;18.02;;;7.25;;
30723;SDS011;17473;52.286;20.930;2023-10-13T13:35:07;14.63;;;7.53;;
30723;SDS011;17473;52.286;20.930;2023-10-13T13:37:40;14.90;;;7.43;;
30723;SDS011;17473;52.286;20.930;2023-10-13T13:40:11;14.38;;;7.85;;
30723;SDS011;17473;52.286;20.930;2023-10-13T13:42:42;19.65;;;8.02;;
30723;SDS011;17473;52.286;20.930;2023-10-13T13:45:13;17.15;;;6.85;;
30723;SDS011;17473;52.286;20.930;2023-10-13T13:47:58;16.38;;;7.10;;
30723;SDS011;17473;52.286;20.930;2023-10-13T13:50:26;14.77;;;7.70;;
30723;SDS011;17473;52.286;20.930;2023-10-13T13:52:56;17.30;;;8.40;;
30723;SDS011;17473;52.286;20.930;2023-10-13T13:55:25;20.33;;;7.97;;
30723;SDS011;17473;52.286;20.930;2023-10-13T13:57:58;18.42;;;8.23;;
30723;SDS011;17473;52.286;20.930;2023-10-13T14:00:25;12.25;;;7.10;;
30723;SDS011;17473;52.286;20.930;2023-10-13T14:03:08;15.85;;;8.02;;
30723;SDS011;17473;52.286;20.930;2023-10-13T14:05:42;22.08;;;8.20;;
30723;SDS011;17473;52.286;20.930;2023-10-13T14:08:10;16.80;;;7.28;;
30723;SDS011;17473;52.286;20.930;2023-10-13T14:10:41;19.02;;;8.45;;
30723;SDS011;17473;52.286;20.930;2023-10-13T14:13:27;16.92;;;7.63;;
30723;SDS011;17473;52.286;20.930;2023-10-13T14:16:19;18.27;;;8.35;;
30723;SDS011;17473;52.286;20.930;2023-10-13T14:18:50;16.55;;;7.85;;
30723;SDS011;17473;52.286;20.930;2023-10-13T14:21:18;19.92;;;8.88;;
30723;SDS011;17473;52.286;20.930;2023-10-13T14:23:46;18.55;;;7.75;;
30723;SDS011;17473;52.286;20.930;2023-10-13T14:26:15;22.63;;;8.20;;
30723;SDS011;17473;52.286;20.930;2023-10-13T14:28:48;16.63;;;8.23;;
30723;SDS011;17473;52.286;20.930;2023-10-13T14:31:31;15.15;;;8.18;;
30723;SDS011;17473;52.286;20.930;2023-10-13T14:33:59;17.85;;;8.00;;
30723;SDS011;17473;52.286;20.930;2023-10-13T14:36:26;20.02;;;8.48;;
30723;SDS011;17473;52.286;20.930;2023-10-13T14:39:01;18.40;;;8.73;;
30723;SDS011;17473;52.286;20.930;2023-10-13T14:41:36;18.75;;;7.85;;
30723;SDS011;17473;52.286;20.930;2023-10-13T14:44:04;15.82;;;7.82;;
30723;SDS011;17473;52.286;20.930;2023-10-13T14:46:32;18.23;;;8.77;;
30723;SDS011;17473;52.286;20.930;2023-10-13T14:49:06;17.20;;;8.32;;
30723;SDS011;17473;52.286;20.930;2023-10-13T14:51:33;20.35;;;8.45;;
30723;SDS011;17473;52.286;20.930;2023-10-13T14:54:06;15.43;;;7.82;;
30723;SDS011;17473;52.286;20.930;2023-10-13T14:56:33;17.60;;;8.57;;
30723;SDS011;17473;52.286;20.930;2023-10-13T14:59:00;19.60;;;8.90;;
30723;SDS011;17473;52.286;20.930;2023-10-13T15:01:31;18.83;;;9.20;;
30723;SDS011;17473;52.286;20.930;2023-10-13T15:03:58;20.17;;;8.80;;
30723;SDS011;17473;52.286;20.930;2023-10-13T15:06:27;16.17;;;7.88;;
30723;SDS011;17473;52.286;20.930;2023-10-13T15:08:57;16.40;;;8.38;;
30723;SDS011;17473;52.286;20.930;2023-10-13T15:11:26;19.92;;;7.78;;
30723;SDS011;17473;52.286;20.930;2023-10-13T15:14:12;14.30;;;8.57;;
30723;SDS011;17473;52.286;20.930;2023-10-13T15:16:40;27.98;;;9.68;;
30723;SDS011;17473;52.286;20.930;2023-10-13T15:19:10;20.05;;;9.07;;
30723;SDS011;17473;52.286;20.930;2023-10-13T15:21:38;21.27;;;9.52;;
30723;SDS011;17473;52.286;20.930;2023-10-13T15:24:07;20.33;;;8.13;;
30723;SDS011;17473;52.286;20.930;2023-10-13T15:26:44;16.98;;;8.30;;